createdAt,value
2018-12-01T00:00:02.434Z,922.25
2018-12-01T00:01:02.421Z,922.30
2018-12-01T00:02:02.399Z,922.30
2018-12-01T00:03:02.367Z,922.31
2018-12-01T00:04:02.351Z,922.40
2018-12-01T00:05:02.327Z,922.40
2018-12-01T00:06:02.293Z,922.48
2018-12-01T00:07:02.283Z,922.54
2018-12-01T00:08:02.250Z,922.65
2018-12-01T00:09:02.250Z,922.86
2018-12-01T00:10:02.223Z,923.02
2018-12-01T00:11:02.199Z,923.06
2018-12-01T00:12:02.181Z,923.12
2018-12-01T00:13:02.157Z,923.27
2018-12-01T00:14:02.142Z,923.39
2018-12-01T00:15:02.118Z,923.47
2018-12-01T00:16:02.090Z,923.53
2018-12-01T00:17:02.073Z,923.54
2018-12-01T00:18:02.081Z,923.55
2018-12-01T00:19:02.016Z,923.61
2018-12-01T00:20:02.008Z,923.68
2018-12-01T00:21:01.989Z,923.72
2018-12-01T00:22:01.963Z,923.78
2018-12-01T00:23:01.952Z,923.79
2018-12-01T00:24:01.925Z,923.83
2018-12-01T00:25:01.889Z,923.86
2018-12-01T00:26:01.875Z,923.81
2018-12-01T00:27:01.858Z,923.75
2018-12-01T00:28:01.842Z,923.76
2018-12-01T00:29:01.820Z,923.81
2018-12-01T00:30:01.803Z,923.80
2018-12-01T00:31:01.770Z,923.78
2018-12-01T00:32:01.748Z,923.81
2018-12-01T00:33:01.731Z,923.85
2018-12-01T00:34:01.697Z,923.84
2018-12-01T00:35:01.673Z,923.85
2018-12-01T00:36:01.663Z,923.89
2018-12-01T00:37:01.648Z,923.86
2018-12-01T00:38:01.621Z,923.74
2018-12-01T00:39:01.605Z,923.69
2018-12-01T00:40:01.584Z,923.67
2018-12-01T00:41:01.557Z,923.59
2018-12-01T00:42:01.523Z,923.54
2018-12-01T00:43:01.514Z,923.52
2018-12-01T00:44:01.498Z,923.55
2018-12-01T00:45:01.488Z,923.39
2018-12-01T00:46:01.439Z,923.36
2018-12-01T00:47:01.422Z,923.39
2018-12-01T00:48:01.409Z,923.37
2018-12-01T00:49:01.372Z,923.39
2018-12-01T00:50:01.369Z,923.37
2018-12-01T00:51:01.340Z,923.43
2018-12-01T00:52:01.324Z,923.45
2018-12-01T00:53:01.305Z,923.42
2018-12-01T00:54:01.279Z,923.46
2018-12-01T00:55:01.257Z,923.60
2018-12-01T00:56:01.238Z,923.52
2018-12-01T00:57:01.212Z,923.56
2018-12-01T00:58:01.199Z,923.55
2018-12-01T00:59:01.173Z,923.53
2018-12-01T01:00:01.144Z,923.63
2018-12-01T01:01:01.116Z,923.57
2018-12-01T01:02:01.108Z,923.61
2018-12-01T01:03:01.088Z,923.60
2018-12-01T01:04:01.062Z,923.63
2018-12-01T01:05:01.046Z,923.62
2018-12-01T01:06:01.016Z,923.68
2018-12-01T01:07:01.001Z,923.68
2018-12-01T01:08:00.978Z,923.60
2018-12-01T01:09:00.941Z,923.50
2018-12-01T01:10:00.937Z,923.33
2018-12-01T01:11:00.897Z,923.38
2018-12-01T01:12:00.891Z,923.36
2018-12-01T01:13:00.882Z,923.24
2018-12-01T01:14:00.852Z,923.12
2018-12-01T01:15:00.830Z,923.28
2018-12-01T01:16:00.807Z,923.30
2018-12-01T01:17:00.780Z,923.32
2018-12-01T01:18:00.763Z,923.34
2018-12-01T01:19:00.746Z,923.32
2018-12-01T01:20:00.718Z,923.35
2018-12-01T01:21:00.699Z,923.36
2018-12-01T01:22:00.678Z,923.29
2018-12-01T01:23:00.658Z,923.27
2018-12-01T01:24:00.634Z,923.24
2018-12-01T01:25:00.611Z,923.19
2018-12-01T01:26:00.579Z,923.20
2018-12-01T01:27:00.570Z,923.19
2018-12-01T01:28:00.553Z,923.17
2018-12-01T01:29:00.526Z,923.13
2018-12-01T01:30:00.510Z,923.14
2018-12-01T01:31:00.468Z,923.22
2018-12-01T01:32:00.462Z,923.28
2018-12-01T01:33:00.440Z,923.20
2018-12-01T01:34:00.424Z,923.13
2018-12-01T01:35:00.383Z,922.96
2018-12-01T01:36:00.376Z,922.89
2018-12-01T01:37:00.346Z,922.83
2018-12-01T01:38:00.316Z,922.78
2018-12-01T01:39:00.298Z,922.81
2018-12-01T01:40:00.292Z,922.96
2018-12-01T01:41:00.263Z,922.98
2018-12-01T01:42:00.247Z,922.98
2018-12-01T01:43:00.229Z,923.08
2018-12-01T01:44:00.204Z,923.03
2018-12-01T01:45:00.185Z,923.11
2018-12-01T01:46:00.162Z,923.05
2018-12-01T01:47:00.142Z,923.07
2018-12-01T01:48:00.116Z,923.11
2018-12-01T01:49:00.092Z,923.18
2018-12-01T01:50:00.075Z,923.14
2018-12-01T01:51:00.060Z,923.19
2018-12-01T01:52:00.032Z,923.22
2018-12-01T01:53:00.019Z,923.18
2018-12-01T01:53:59.989Z,923.07
2018-12-01T01:54:59.968Z,923.08
2018-12-01T01:55:59.940Z,923.09
2018-12-01T01:56:59.907Z,922.99
2018-12-01T01:57:59.906Z,923.07
2018-12-01T01:58:59.877Z,923.00
2018-12-01T01:59:59.861Z,922.98
2018-12-01T02:00:59.820Z,922.96
2018-12-01T02:01:59.810Z,923.05
2018-12-01T02:02:59.797Z,923.01
2018-12-01T02:03:59.767Z,923.02
2018-12-01T02:04:59.752Z,923.02
2018-12-01T02:05:59.724Z,923.02
2018-12-01T02:06:59.705Z,922.99
2018-12-01T02:07:59.670Z,922.99
2018-12-01T02:08:59.663Z,922.96
2018-12-01T02:09:59.627Z,922.84
2018-12-01T02:10:59.606Z,922.78
2018-12-01T02:11:59.597Z,922.75
2018-12-01T02:12:59.577Z,922.71
2018-12-01T02:13:59.555Z,922.68
2018-12-01T02:14:59.535Z,922.70
2018-12-01T02:15:59.509Z,922.77
2018-12-01T02:16:59.484Z,922.76
2018-12-01T02:17:59.476Z,922.77
2018-12-01T02:18:59.447Z,922.78
2018-12-01T02:19:59.425Z,922.81
2018-12-01T02:20:59.401Z,922.81
2018-12-01T02:21:59.364Z,922.84
2018-12-01T02:22:59.337Z,922.83
2018-12-01T02:23:59.331Z,922.74
2018-12-01T02:24:59.316Z,922.68
2018-12-01T02:25:59.277Z,922.59
2018-12-01T02:26:59.283Z,922.55
2018-12-01T02:27:59.255Z,922.52
2018-12-01T02:28:59.232Z,922.48
2018-12-01T02:29:59.205Z,922.41
2018-12-01T02:30:59.184Z,922.31
2018-12-01T02:31:59.163Z,922.32
2018-12-01T02:32:59.141Z,922.30
2018-12-01T02:33:59.121Z,922.24
2018-12-01T02:34:59.096Z,922.25
2018-12-01T02:35:59.070Z,922.21
2018-12-01T02:36:59.048Z,922.08
2018-12-01T02:37:59.019Z,921.92
2018-12-01T02:38:59.006Z,921.89
2018-12-01T02:39:58.983Z,921.87
2018-12-01T02:40:58.963Z,921.96
2018-12-01T02:41:58.938Z,921.92
2018-12-01T02:42:58.920Z,921.91
2018-12-01T02:43:58.902Z,921.93
2018-12-01T02:44:58.869Z,921.99
2018-12-01T02:45:58.851Z,921.95
2018-12-01T02:46:58.822Z,921.97
2018-12-01T02:47:58.808Z,921.98
2018-12-01T02:48:58.789Z,922.00
2018-12-01T02:49:58.763Z,922.04
2018-12-01T02:50:58.745Z,922.09
2018-12-01T02:51:58.728Z,922.17
2018-12-01T02:52:58.704Z,922.23
2018-12-01T02:53:58.681Z,922.20
2018-12-01T02:54:58.658Z,922.28
2018-12-01T02:55:58.636Z,922.26
2018-12-01T02:56:58.616Z,922.37
2018-12-01T02:57:58.592Z,922.44
2018-12-01T02:58:58.570Z,922.57
2018-12-01T02:59:58.534Z,922.53
2018-12-01T03:00:58.510Z,922.47
2018-12-01T03:01:58.500Z,922.47
2018-12-01T03:02:58.487Z,922.27
2018-12-01T03:03:58.458Z,922.29
2018-12-01T03:04:58.426Z,922.26
2018-12-01T03:05:58.407Z,922.32
2018-12-01T03:06:58.386Z,922.31
2018-12-01T03:07:58.373Z,922.37
2018-12-01T03:08:58.352Z,922.36
2018-12-01T03:09:58.332Z,922.38
2018-12-01T03:10:58.312Z,922.56
2018-12-01T03:11:58.276Z,922.60
2018-12-01T03:12:58.266Z,922.57
2018-12-01T03:13:58.236Z,922.49
2018-12-01T03:14:58.210Z,922.55
2018-12-01T03:15:58.199Z,922.58
2018-12-01T03:16:58.188Z,922.54
2018-12-01T03:17:58.162Z,922.51
2018-12-01T03:18:58.136Z,922.59
2018-12-01T03:19:58.117Z,922.66
2018-12-01T03:20:58.091Z,922.64
2018-12-01T03:21:58.069Z,922.68
2018-12-01T03:22:58.046Z,922.65
2018-12-01T03:23:58.035Z,922.60
2018-12-01T03:24:57.993Z,922.61
2018-12-01T03:25:57.984Z,922.55
2018-12-01T03:26:57.958Z,922.47
2018-12-01T03:27:57.939Z,922.51
2018-12-01T03:28:57.923Z,922.53
2018-12-01T03:29:57.899Z,922.54
2018-12-01T03:30:57.877Z,922.63
2018-12-01T03:31:57.856Z,922.67
2018-12-01T03:32:57.847Z,922.55
2018-12-01T03:33:57.810Z,922.73
2018-12-01T03:34:57.774Z,922.73
2018-12-01T03:35:57.761Z,922.62
2018-12-01T03:36:57.744Z,922.71
2018-12-01T03:37:57.723Z,922.59
2018-12-01T03:38:57.704Z,922.63
2018-12-01T03:39:57.680Z,922.69
2018-12-01T03:40:57.665Z,922.64
2018-12-01T03:41:57.623Z,922.61
2018-12-01T03:42:57.616Z,922.51
2018-12-01T03:43:57.596Z,922.33
2018-12-01T03:44:57.577Z,922.36
2018-12-01T03:45:57.546Z,922.35
2018-12-01T03:46:57.527Z,922.34
2018-12-01T03:47:57.508Z,922.19
2018-12-01T03:48:57.479Z,922.28
2018-12-01T03:49:57.465Z,922.35
2018-12-01T03:50:57.434Z,922.39
2018-12-01T03:51:57.401Z,922.45
2018-12-01T03:52:57.388Z,922.53
2018-12-01T03:53:57.368Z,922.60
2018-12-01T03:54:57.350Z,922.50
2018-12-01T03:55:57.336Z,922.47
2018-12-01T03:56:57.307Z,922.51
2018-12-01T03:57:57.291Z,922.49
2018-12-01T03:58:57.267Z,922.37
2018-12-01T03:59:57.244Z,922.36
2018-12-01T04:00:57.226Z,922.33
2018-12-01T04:01:57.197Z,922.39
2018-12-01T04:02:57.172Z,922.36
2018-12-01T04:03:57.149Z,922.34
2018-12-01T04:04:57.135Z,922.38
2018-12-01T04:05:57.108Z,922.35
2018-12-01T04:06:57.081Z,922.39
2018-12-01T04:07:57.058Z,922.48
2018-12-01T04:08:57.031Z,922.49
2018-12-01T04:09:57.019Z,922.50
2018-12-01T04:10:56.987Z,922.54
2018-12-01T04:11:56.961Z,922.47
2018-12-01T04:12:56.958Z,922.50
2018-12-01T04:13:56.930Z,922.56
2018-12-01T04:14:56.891Z,922.49
2018-12-01T04:15:56.887Z,922.58
2018-12-01T04:16:56.865Z,922.56
2018-12-01T04:17:56.846Z,922.60
2018-12-01T04:18:56.811Z,922.61
2018-12-01T04:19:56.788Z,922.66
2018-12-01T04:20:56.778Z,922.61
2018-12-01T04:21:56.758Z,922.58
2018-12-01T04:22:56.736Z,922.57
2018-12-01T04:23:56.711Z,922.58
2018-12-01T04:24:56.693Z,922.52
2018-12-01T04:25:56.672Z,922.48
2018-12-01T04:26:56.646Z,922.40
2018-12-01T04:27:56.624Z,922.31
2018-12-01T04:28:56.587Z,922.27
2018-12-01T04:29:56.568Z,922.21
2018-12-01T04:30:56.559Z,922.21
2018-12-01T04:31:56.517Z,922.16
2018-12-01T04:32:56.497Z,922.09
2018-12-01T04:33:56.497Z,922.01
2018-12-01T04:34:56.469Z,921.99
2018-12-01T04:35:56.443Z,922.00
2018-12-01T04:36:56.427Z,921.98
2018-12-01T04:37:56.401Z,922.04
2018-12-01T04:38:56.389Z,921.95
2018-12-01T04:39:56.353Z,921.87
2018-12-01T04:40:56.336Z,921.85
2018-12-01T04:41:56.322Z,921.77
2018-12-01T04:42:56.296Z,921.74
2018-12-01T04:43:56.276Z,921.79
2018-12-01T04:44:56.248Z,921.75
2018-12-01T04:45:56.226Z,921.74
2018-12-01T04:46:56.208Z,921.68
2018-12-01T04:47:56.187Z,921.65
2018-12-01T04:48:56.167Z,921.54
2018-12-01T04:49:56.144Z,921.52
2018-12-01T04:50:56.118Z,921.49
2018-12-01T04:51:56.097Z,921.45
2018-12-01T04:52:56.073Z,921.49
2018-12-01T04:53:56.048Z,921.48
2018-12-01T04:54:56.035Z,921.46
2018-12-01T04:55:55.991Z,921.44
2018-12-01T04:56:55.991Z,921.37
2018-12-01T04:57:55.963Z,921.33
2018-12-01T04:58:55.945Z,921.26
2018-12-01T04:59:55.912Z,921.18
2018-12-01T05:00:55.900Z,921.11
2018-12-01T05:01:55.880Z,921.04
2018-12-01T05:02:55.863Z,921.02
2018-12-01T05:03:55.836Z,920.90
2018-12-01T05:04:55.813Z,920.86
2018-12-01T05:05:55.794Z,920.79
2018-12-01T05:06:55.765Z,920.75
2018-12-01T05:07:55.747Z,920.70
2018-12-01T05:08:55.728Z,920.66
2018-12-01T05:09:55.690Z,920.61
2018-12-01T05:10:55.680Z,920.59
2018-12-01T05:11:55.662Z,920.48
2018-12-01T05:12:55.624Z,920.42
2018-12-01T05:13:55.617Z,920.40
2018-12-01T05:14:55.578Z,920.44
2018-12-01T05:15:55.568Z,920.39
2018-12-01T05:16:55.549Z,920.44
2018-12-01T05:17:55.524Z,920.44
2018-12-01T05:18:55.508Z,920.43
2018-12-01T05:19:55.489Z,920.47
2018-12-01T05:20:55.462Z,920.55
2018-12-01T05:21:55.440Z,920.55
2018-12-01T05:22:55.412Z,920.51
2018-12-01T05:23:55.402Z,920.53
2018-12-01T05:24:55.376Z,920.50
2018-12-01T05:25:55.354Z,920.43
2018-12-01T05:26:55.334Z,920.38
2018-12-01T05:27:55.311Z,920.26
2018-12-01T05:28:55.282Z,920.27
2018-12-01T05:29:55.270Z,920.27
2018-12-01T05:30:55.243Z,920.23
2018-12-01T05:31:55.206Z,920.23
2018-12-01T05:32:55.204Z,920.16
2018-12-01T05:33:55.180Z,920.13
2018-12-01T05:34:55.155Z,920.14
2018-12-01T05:35:55.127Z,920.10
2018-12-01T05:36:55.112Z,920.09
2018-12-01T05:37:55.093Z,920.01
2018-12-01T05:38:55.068Z,920.01
2018-12-01T05:39:55.039Z,920.04
2018-12-01T05:40:55.020Z,920.00
2018-12-01T05:41:54.996Z,920.05
2018-12-01T05:42:54.974Z,920.04
2018-12-01T05:43:54.959Z,920.12
2018-12-01T05:44:54.921Z,920.18
2018-12-01T05:45:54.914Z,920.10
2018-12-01T05:46:54.890Z,920.10
2018-12-01T05:47:54.869Z,920.14
2018-12-01T05:48:54.850Z,920.11
2018-12-01T05:49:54.821Z,920.13
2018-12-01T05:50:54.783Z,920.12
2018-12-01T05:51:54.787Z,920.13
2018-12-01T05:52:54.758Z,920.10
2018-12-01T05:53:54.717Z,920.09
2018-12-01T05:54:54.708Z,920.15
2018-12-01T05:55:54.686Z,920.15
2018-12-01T05:56:54.677Z,920.18
2018-12-01T05:57:54.652Z,920.16
2018-12-01T05:58:54.626Z,920.19
2018-12-01T05:59:54.606Z,920.05
2018-12-01T06:00:54.587Z,920.12
2018-12-01T06:01:54.563Z,920.19
2018-12-01T06:02:54.546Z,920.25
2018-12-01T06:03:54.521Z,920.28
2018-12-01T06:04:54.492Z,920.25
2018-12-01T06:05:54.473Z,920.28
2018-12-01T06:06:54.450Z,920.17
2018-12-01T06:07:54.431Z,920.19
2018-12-01T06:08:54.408Z,920.24
2018-12-01T06:09:54.385Z,920.20
2018-12-01T06:10:54.368Z,920.13
2018-12-01T06:11:54.348Z,920.07
2018-12-01T06:12:54.304Z,920.09
2018-12-01T06:13:54.300Z,920.12
2018-12-01T06:14:54.280Z,920.12
2018-12-01T06:15:54.252Z,920.19
2018-12-01T06:16:54.231Z,920.22
2018-12-01T06:17:54.199Z,920.25
2018-12-01T06:18:54.186Z,920.21
2018-12-01T06:19:54.172Z,920.21
2018-12-01T06:20:54.130Z,920.14
2018-12-01T06:21:54.126Z,920.06
2018-12-01T06:22:54.133Z,920.07
2018-12-01T06:23:54.083Z,919.97
2018-12-01T06:24:54.065Z,920.10
2018-12-01T06:25:54.033Z,920.11
2018-12-01T06:26:54.011Z,920.03
2018-12-01T06:27:53.979Z,920.01
2018-12-01T06:28:53.969Z,920.02
2018-12-01T06:29:53.947Z,920.05
2018-12-01T06:30:53.929Z,920.01
2018-12-01T06:31:53.903Z,919.99
2018-12-01T06:32:53.886Z,919.96
2018-12-01T06:33:53.868Z,919.93
2018-12-01T06:34:53.838Z,919.96
2018-12-01T06:35:53.814Z,919.99
2018-12-01T06:36:53.797Z,919.99
2018-12-01T06:37:53.773Z,919.98
2018-12-01T06:38:53.752Z,920.07
2018-12-01T06:39:53.725Z,920.07
2018-12-01T06:40:53.710Z,920.06
2018-12-01T06:41:53.687Z,920.02
2018-12-01T06:42:53.663Z,920.13
2018-12-01T06:43:53.645Z,920.13
2018-12-01T06:44:53.621Z,920.20
2018-12-01T06:45:53.602Z,920.26
2018-12-01T06:46:53.556Z,920.27
2018-12-01T06:47:53.557Z,920.26
2018-12-01T06:48:53.535Z,920.29
2018-12-01T06:49:53.515Z,920.34
2018-12-01T06:50:53.490Z,920.38
2018-12-01T06:51:53.467Z,920.38
2018-12-01T06:52:53.442Z,920.37
2018-12-01T06:53:53.408Z,920.43
2018-12-01T06:54:53.385Z,920.52
2018-12-01T06:55:53.387Z,920.48
2018-12-01T06:56:53.361Z,920.49
2018-12-01T06:57:53.342Z,920.55
2018-12-01T06:58:53.313Z,920.52
2018-12-01T06:59:53.296Z,920.51
2018-12-01T07:00:53.257Z,920.57
2018-12-01T07:01:53.249Z,920.54
2018-12-01T07:02:53.225Z,920.61
2018-12-01T07:03:53.207Z,920.71
2018-12-01T07:04:53.184Z,920.70
2018-12-01T07:05:53.160Z,920.73
2018-12-01T07:06:53.141Z,920.79
2018-12-01T07:07:53.117Z,920.74
2018-12-01T07:08:53.095Z,920.74
2018-12-01T07:09:53.078Z,920.72
2018-12-01T07:10:53.056Z,920.67
2018-12-01T07:11:53.033Z,920.72
2018-12-01T07:12:53.013Z,920.77
2018-12-01T07:13:52.971Z,920.85
2018-12-01T07:14:52.956Z,920.89
2018-12-01T07:15:52.947Z,920.96
2018-12-01T07:16:52.918Z,920.93
2018-12-01T07:17:52.896Z,921.00
2018-12-01T07:18:52.862Z,921.03
2018-12-01T07:19:52.858Z,921.04
2018-12-01T07:20:52.833Z,921.08
2018-12-01T07:21:52.809Z,921.07
2018-12-01T07:22:52.792Z,921.12
2018-12-01T07:23:52.769Z,921.26
2018-12-01T07:24:52.750Z,921.22
2018-12-01T07:25:52.724Z,921.26
2018-12-01T07:26:52.699Z,921.29
2018-12-01T07:27:52.679Z,921.35
2018-12-01T07:28:52.662Z,921.30
2018-12-01T07:29:57.970Z,921.29
2018-12-01T07:30:52.614Z,921.32
2018-12-01T07:31:52.594Z,921.30
2018-12-01T07:32:52.559Z,921.36
2018-12-01T07:33:52.533Z,921.40
2018-12-01T07:34:52.507Z,921.49
2018-12-01T07:35:52.489Z,921.43
2018-12-01T07:36:52.483Z,921.41
2018-12-01T07:37:52.463Z,921.43
2018-12-01T07:38:52.433Z,921.41
2018-12-01T07:39:52.411Z,921.47
2018-12-01T07:40:52.400Z,921.44
2018-12-01T07:41:52.374Z,921.41
2018-12-01T07:42:52.353Z,921.34
2018-12-01T07:43:52.329Z,921.31
2018-12-01T07:44:52.308Z,921.34
2018-12-01T07:45:52.283Z,921.33
2018-12-01T07:46:52.268Z,921.27
2018-12-01T07:47:52.250Z,921.25
2018-12-01T07:48:52.221Z,921.24
2018-12-01T07:49:52.196Z,921.19
2018-12-01T07:50:52.170Z,921.21
2018-12-01T07:51:52.156Z,921.26
2018-12-01T07:52:52.138Z,921.24
2018-12-01T07:53:52.110Z,921.20
2018-12-01T07:54:52.093Z,921.20
2018-12-01T07:55:52.065Z,921.20
2018-12-01T07:56:52.044Z,921.25
2018-12-01T07:57:52.024Z,921.21
2018-12-01T07:58:51.999Z,921.18
2018-12-01T07:59:51.971Z,921.21
2018-12-01T08:00:51.944Z,921.16
2018-12-01T08:01:51.928Z,921.16
2018-12-01T08:02:51.902Z,921.16
2018-12-01T08:03:51.880Z,921.17
2018-12-01T08:04:51.868Z,921.11
2018-12-01T08:05:51.850Z,921.08
2018-12-01T08:06:51.831Z,921.08
2018-12-01T08:07:51.808Z,921.05
2018-12-01T08:08:51.773Z,921.09
2018-12-01T08:09:51.761Z,921.16
2018-12-01T08:10:51.743Z,921.15
2018-12-01T08:11:51.720Z,921.22
2018-12-01T08:12:51.685Z,921.28
2018-12-01T08:13:51.668Z,921.20
2018-12-01T08:14:51.641Z,921.20
2018-12-01T08:15:51.616Z,921.16
2018-12-01T08:16:51.596Z,921.21
2018-12-01T08:17:51.593Z,921.12
2018-12-01T08:18:51.575Z,921.15
2018-12-01T08:19:51.549Z,921.07
2018-12-01T08:20:52.568Z,921.07
2018-12-01T08:21:51.506Z,921.10
2018-12-01T08:22:51.478Z,921.15
2018-12-01T08:23:51.444Z,921.13
2018-12-01T08:24:51.437Z,921.17
2018-12-01T08:25:51.414Z,921.16
2018-12-01T08:26:51.392Z,921.11
2018-12-01T08:27:51.377Z,921.11
2018-12-01T08:28:51.339Z,921.12
2018-12-01T08:29:51.331Z,921.13
2018-12-01T08:30:51.306Z,921.14
2018-12-01T08:31:51.287Z,921.13
2018-12-01T08:32:51.265Z,921.17
2018-12-01T08:33:51.247Z,921.10
2018-12-01T08:34:51.227Z,921.14
2018-12-01T08:35:51.195Z,921.12
2018-12-01T08:36:51.175Z,921.22
2018-12-01T08:37:51.160Z,921.21
2018-12-01T08:38:51.120Z,921.20
2018-12-01T08:39:51.101Z,921.19
2018-12-01T08:40:51.085Z,921.18
2018-12-01T08:41:51.076Z,921.18
2018-12-01T08:42:51.044Z,921.16
2018-12-01T08:43:51.031Z,921.18
2018-12-01T08:44:51.005Z,921.30
2018-12-01T08:45:50.977Z,921.38
2018-12-01T08:46:50.962Z,921.37
2018-12-01T08:47:50.938Z,921.33
2018-12-01T08:48:50.919Z,921.40
2018-12-01T08:49:50.896Z,921.38
2018-12-01T08:50:50.864Z,921.44
2018-12-01T08:51:50.852Z,921.38
2018-12-01T08:52:50.834Z,921.45
2018-12-01T08:53:50.808Z,921.48
2018-12-01T08:54:50.781Z,921.42
2018-12-01T08:55:50.763Z,921.42
2018-12-01T08:56:50.731Z,921.44
2018-12-01T08:57:50.710Z,921.45
2018-12-01T08:58:50.697Z,921.48
2018-12-01T08:59:50.881Z,921.49
2018-12-01T09:00:50.668Z,921.50
2018-12-01T09:01:50.634Z,921.47
2018-12-01T09:02:50.616Z,921.53
2018-12-01T09:03:50.587Z,921.52
2018-12-01T09:04:50.561Z,921.53
2018-12-01T09:05:50.555Z,921.66
2018-12-01T09:06:50.526Z,921.66
2018-12-01T09:07:50.512Z,921.65
2018-12-01T09:08:50.489Z,921.60
2018-12-01T09:09:50.472Z,921.67
2018-12-01T09:10:50.446Z,921.66
2018-12-01T09:11:50.419Z,921.59
2018-12-01T09:12:50.400Z,921.69
2018-12-01T09:13:50.368Z,921.75
2018-12-01T09:14:50.353Z,921.81
2018-12-01T09:15:50.336Z,921.68
2018-12-01T09:16:50.297Z,921.76
2018-12-01T09:17:50.277Z,921.86
2018-12-01T09:18:50.261Z,921.78
2018-12-01T09:19:50.237Z,921.74
2018-12-01T09:20:50.212Z,921.73
2018-12-01T09:21:50.208Z,921.73
2018-12-01T09:22:50.181Z,921.71
2018-12-01T09:23:50.157Z,921.73
2018-12-01T09:24:50.141Z,921.71
2018-12-01T09:25:50.125Z,921.75
2018-12-01T09:26:50.098Z,921.75
2018-12-01T09:27:50.068Z,921.78
2018-12-01T09:28:50.053Z,921.78
2018-12-01T09:29:50.036Z,921.76
2018-12-01T09:30:50.013Z,921.83
2018-12-01T09:31:49.995Z,921.81
2018-12-01T09:32:49.961Z,921.82
2018-12-01T09:33:49.948Z,921.82
2018-12-01T09:34:49.927Z,921.78
2018-12-01T09:35:49.905Z,921.70
2018-12-01T09:36:49.887Z,921.82
2018-12-01T09:37:49.866Z,921.79
2018-12-01T09:38:49.845Z,921.78
2018-12-01T09:39:49.819Z,921.82
2018-12-01T09:40:49.779Z,921.82
2018-12-01T09:41:49.776Z,921.87
2018-12-01T09:42:49.752Z,921.80
2018-12-01T09:43:49.728Z,921.82
2018-12-01T09:44:49.710Z,921.81
2018-12-01T09:45:49.690Z,921.69
2018-12-01T09:46:49.671Z,921.78
2018-12-01T09:47:49.630Z,921.79
2018-12-01T09:48:49.629Z,921.75
2018-12-01T09:49:49.606Z,921.68
2018-12-01T09:50:49.583Z,921.75
2018-12-01T09:51:49.567Z,921.79
2018-12-01T09:52:49.545Z,921.77
2018-12-01T09:53:49.518Z,921.72
2018-12-01T09:54:49.498Z,921.78
2018-12-01T09:55:49.490Z,921.87
2018-12-01T09:56:49.455Z,921.85
2018-12-01T09:57:49.418Z,921.85
2018-12-01T09:58:49.414Z,921.78
2018-12-01T09:59:49.393Z,921.81
2018-12-01T10:00:49.370Z,921.82
2018-12-01T10:01:49.334Z,921.81
2018-12-01T10:02:49.307Z,921.80
2018-12-01T10:03:49.296Z,921.87
2018-12-01T10:04:49.289Z,921.87
2018-12-01T10:05:49.261Z,921.86
2018-12-01T10:06:49.229Z,921.85
2018-12-01T10:07:49.225Z,921.81
2018-12-01T10:08:49.200Z,921.78
2018-12-01T10:09:49.159Z,921.83
2018-12-01T10:10:49.156Z,921.86
2018-12-01T10:11:50.556Z,921.85
2018-12-01T10:12:49.116Z,921.90
2018-12-01T10:13:49.091Z,921.86
2018-12-01T10:14:49.077Z,921.93
2018-12-01T10:15:49.047Z,921.86
2018-12-01T10:16:49.025Z,921.85
2018-12-01T10:17:49.007Z,921.88
2018-12-01T10:18:48.987Z,921.80
2018-12-01T10:19:48.966Z,921.85
2018-12-01T10:20:48.939Z,921.83
2018-12-01T10:21:48.918Z,921.87
2018-12-01T10:22:48.898Z,921.90
2018-12-01T10:23:48.882Z,922.00
2018-12-01T10:24:48.858Z,922.02
2018-12-01T10:25:48.844Z,921.91
2018-12-01T10:26:48.814Z,921.79
2018-12-01T10:27:48.784Z,921.87
2018-12-01T10:28:48.771Z,921.86
2018-12-01T10:29:48.752Z,921.83
2018-12-01T10:30:48.725Z,921.93
2018-12-01T10:31:48.717Z,921.98
2018-12-01T10:32:48.692Z,921.96
2018-12-01T10:33:48.653Z,921.97
2018-12-01T10:34:48.635Z,921.99
2018-12-01T10:35:48.607Z,921.99
2018-12-01T10:36:48.607Z,921.92
2018-12-01T10:37:48.584Z,922.01
2018-12-01T10:38:48.564Z,922.09
2018-12-01T10:39:48.524Z,922.08
2018-12-01T10:40:48.522Z,921.89
2018-12-01T10:41:48.488Z,921.89
2018-12-01T10:42:48.465Z,921.99
2018-12-01T10:43:48.460Z,922.00
2018-12-01T10:44:48.438Z,921.94
2018-12-01T10:45:48.421Z,921.86
2018-12-01T10:46:48.398Z,921.94
2018-12-01T10:47:48.382Z,922.04
2018-12-01T10:48:48.361Z,921.96
2018-12-01T10:49:48.341Z,922.03
2018-12-01T10:50:48.316Z,922.13
2018-12-01T10:51:48.296Z,922.08
2018-12-01T10:52:48.259Z,922.03
2018-12-01T10:53:48.250Z,922.02
2018-12-01T10:54:48.216Z,922.02
2018-12-01T10:55:48.205Z,922.16
2018-12-01T10:56:48.201Z,922.01
2018-12-01T10:57:48.176Z,921.96
2018-12-01T10:58:48.164Z,921.88
2018-12-01T10:59:48.133Z,921.92
2018-12-01T11:00:48.114Z,921.94
2018-12-01T11:01:48.093Z,921.80
2018-12-01T11:02:48.080Z,921.78
2018-12-01T11:03:48.059Z,921.70
2018-12-01T11:04:48.040Z,921.78
2018-12-01T11:05:48.021Z,921.81
2018-12-01T11:06:47.995Z,921.86
2018-12-01T11:07:47.979Z,921.93
2018-12-01T11:08:47.963Z,921.85
2018-12-01T11:09:47.928Z,921.82
2018-12-01T11:10:47.920Z,921.68
2018-12-01T11:11:47.901Z,921.69
2018-12-01T11:12:47.880Z,921.72
2018-12-01T11:13:47.864Z,921.66
2018-12-01T11:14:47.842Z,921.52
2018-12-01T11:15:47.822Z,921.54
2018-12-01T11:16:47.799Z,921.70
2018-12-01T11:17:47.770Z,921.69
2018-12-01T11:18:47.760Z,921.68
2018-12-01T11:19:47.735Z,921.77
2018-12-01T11:20:47.731Z,921.71
2018-12-01T11:21:47.704Z,921.66
2018-12-01T11:22:47.686Z,921.63
2018-12-01T11:23:47.661Z,921.58
2018-12-01T11:24:47.644Z,921.60
2018-12-01T11:25:47.626Z,921.68
2018-12-01T11:26:47.614Z,921.63
2018-12-01T11:27:47.601Z,921.65
2018-12-01T11:28:47.576Z,921.69
2018-12-01T11:29:47.550Z,921.76
2018-12-01T11:30:47.530Z,921.68
2018-12-01T11:31:47.500Z,921.74
2018-12-01T11:32:47.492Z,921.78
2018-12-01T11:33:47.472Z,921.77
2018-12-01T11:34:47.454Z,921.79
2018-12-01T11:35:47.438Z,921.65
2018-12-01T11:36:47.400Z,921.62
2018-12-01T11:37:47.382Z,921.71
2018-12-01T11:38:47.378Z,921.75
2018-12-01T11:39:47.364Z,921.75
2018-12-01T11:40:47.338Z,921.70
2018-12-01T11:41:47.322Z,921.74
2018-12-01T11:42:47.303Z,921.75
2018-12-01T11:43:47.285Z,921.94
2018-12-01T11:44:47.262Z,921.89
2018-12-01T11:45:47.246Z,921.89
2018-12-01T11:46:47.231Z,921.90
2018-12-01T11:47:47.209Z,921.81
2018-12-01T11:48:47.189Z,922.03
2018-12-01T11:49:47.174Z,921.78
2018-12-01T11:50:47.157Z,921.83
2018-12-01T11:51:47.134Z,921.83
2018-12-01T11:52:47.125Z,921.78
2018-12-01T11:53:47.098Z,921.83
2018-12-01T11:54:47.079Z,921.86
2018-12-01T11:55:47.066Z,921.86
2018-12-01T11:56:47.043Z,921.81
2018-12-01T11:57:47.022Z,921.68
2018-12-01T11:58:47.003Z,921.74
2018-12-01T11:59:46.988Z,921.71
2018-12-01T12:00:46.968Z,921.83
2018-12-01T12:01:46.952Z,921.82
2018-12-01T12:02:46.930Z,921.84
2018-12-01T12:03:46.915Z,922.01
2018-12-01T12:04:46.899Z,921.97
2018-12-01T12:05:46.883Z,921.91
2018-12-01T12:06:46.862Z,921.85
2018-12-01T12:08:46.826Z,922.06
2018-12-01T12:09:46.807Z,921.86
2018-12-01T12:10:46.796Z,921.92
2018-12-01T12:11:48.850Z,921.89
2018-12-01T12:12:46.756Z,921.85
2018-12-01T12:13:46.739Z,921.84
2018-12-01T12:14:51.967Z,921.85
2018-12-01T12:15:46.706Z,921.81
2018-12-01T12:16:46.681Z,921.88
2018-12-01T12:17:46.672Z,921.88
2018-12-01T12:18:47.514Z,921.87
2018-12-01T12:19:47.495Z,921.86
2018-12-01T12:20:46.616Z,921.83
2018-12-01T12:21:50.798Z,922.11
2018-12-01T12:22:46.582Z,922.16
2018-12-01T12:23:46.561Z,921.97
2018-12-01T12:24:47.610Z,921.97
2018-12-01T12:25:46.520Z,921.93
2018-12-01T12:26:46.508Z,921.96
2018-12-01T12:27:46.491Z,922.34
2018-12-01T12:28:46.477Z,921.97